createdAt,value
2023-02-22T00:00:51.987Z,4.92
2023-02-22T00:01:53.275Z,4.92
2023-02-22T00:02:55.987Z,4.93
2023-02-22T00:03:57.282Z,4.96
2023-02-22T00:04:58.565Z,4.96
2023-02-22T00:06:00.842Z,4.96
2023-02-22T00:07:02.055Z,4.95
2023-02-22T00:08:03.298Z,4.97
2023-02-22T00:09:04.586Z,4.97
2023-02-22T00:10:06.064Z,4.94
2023-02-22T00:11:08.114Z,4.93
2023-02-22T00:12:09.320Z,4.94
2023-02-22T00:13:11.884Z,4.91
2023-02-22T00:14:13.136Z,4.90
2023-02-22T00:15:15.032Z,4.91
2023-02-22T00:16:17.860Z,4.90
2023-02-22T00:17:19.153Z,4.88
2023-02-22T00:18:20.352Z,4.88
2023-02-22T00:19:21.649Z,4.89
2023-02-22T00:20:23.656Z,4.88
2023-02-22T00:21:24.918Z,4.89
2023-02-22T00:22:26.144Z,4.89
2023-02-22T00:23:28.791Z,4.90
2023-02-22T00:24:32.202Z,4.90
2023-02-22T00:25:33.963Z,4.89
2023-02-22T00:26:35.300Z,4.87
2023-02-22T00:27:36.696Z,4.84
2023-02-22T00:28:37.947Z,4.84
2023-02-22T00:29:43.980Z,4.85
2023-02-22T00:30:45.369Z,4.87
2023-02-22T00:31:47.129Z,4.86
2023-02-22T00:32:49.076Z,4.82
2023-02-22T00:33:50.379Z,4.82
2023-02-22T00:34:53.144Z,4.83
2023-02-22T00:35:54.365Z,4.82
2023-02-22T00:36:55.626Z,4.81
2023-02-22T00:37:58.370Z,4.82
2023-02-22T00:38:59.615Z,4.85
2023-02-22T00:40:01.128Z,4.93
2023-02-22T00:41:02.389Z,4.98
2023-02-22T00:42:03.683Z,5.01
2023-02-22T00:43:05.660Z,5.05
2023-02-22T00:44:06.911Z,5.11
2023-02-22T00:45:08.561Z,5.19
2023-02-22T00:46:10.040Z,5.27
2023-02-22T00:47:11.317Z,5.33
2023-02-22T00:48:12.578Z,5.37
2023-02-22T00:49:13.787Z,5.35
2023-02-22T00:50:17.445Z,5.36
2023-02-22T00:51:18.976Z,5.38
2023-02-22T00:52:20.269Z,5.43
2023-02-22T00:53:25.036Z,5.48
2023-02-22T00:54:26.523Z,5.50
2023-02-22T00:55:31.232Z,5.50
2023-02-22T00:56:33.281Z,5.50
2023-02-22T00:57:34.632Z,5.52
2023-02-22T00:58:35.841Z,5.54
2023-02-22T00:59:37.058Z,5.50
2023-02-22T01:00:39.515Z,5.50
2023-02-22T01:01:41.862Z,5.51
2023-02-22T01:02:43.390Z,5.51
2023-02-22T01:03:46.849Z,5.52
2023-02-22T01:04:48.306Z,5.54
2023-02-22T01:05:49.626Z,5.53
2023-02-22T01:06:50.940Z,5.53
2023-02-22T01:07:52.468Z,5.55
2023-02-22T01:08:53.694Z,5.56
2023-02-22T01:09:54.932Z,5.55
2023-02-22T01:10:56.189Z,5.54
2023-02-22T01:11:57.461Z,5.52
2023-02-22T01:12:59.321Z,5.54
2023-02-22T01:14:00.532Z,5.59
2023-02-22T01:15:05.722Z,5.56
2023-02-22T01:16:07.293Z,5.53
2023-02-22T01:17:08.825Z,5.52
2023-02-22T01:18:10.176Z,5.50
2023-02-22T01:19:11.390Z,5.50
2023-02-22T01:20:12.590Z,5.53
2023-02-22T01:21:13.909Z,5.57
2023-02-22T01:22:16.140Z,5.60
2023-02-22T01:23:17.493Z,5.64
2023-02-22T01:24:19.294Z,5.68
2023-02-22T01:25:22.801Z,5.64
2023-02-22T01:26:24.030Z,5.64
2023-02-22T01:27:25.328Z,5.65
2023-02-22T01:28:26.581Z,5.59
2023-02-22T01:29:27.950Z,5.57
2023-02-22T01:30:30.821Z,5.55
2023-02-22T01:31:32.296Z,5.55
2023-02-22T01:32:37.206Z,5.54
2023-02-22T01:33:38.438Z,5.55
2023-02-22T01:34:39.699Z,5.57
2023-02-22T01:35:41.566Z,5.57
2023-02-22T01:36:42.962Z,5.55
2023-02-22T01:37:44.252Z,5.55
2023-02-22T01:38:45.513Z,5.53
2023-02-22T01:39:46.768Z,5.58
2023-02-22T01:40:49.189Z,5.60
2023-02-22T01:41:50.900Z,5.59
2023-02-22T01:42:52.947Z,5.60
2023-02-22T01:43:54.144Z,5.57
2023-02-22T01:45:14.359Z,5.57
2023-02-22T01:46:19.984Z,5.56
2023-02-22T01:47:21.221Z,5.55
2023-02-22T01:48:25.854Z,5.55
2023-02-22T01:49:33.366Z,5.54
2023-02-22T01:50:57.523Z,5.52
2023-02-22T01:52:02.356Z,5.50
2023-02-22T01:53:04.285Z,5.47
2023-02-22T01:54:09.204Z,5.44
2023-02-22T01:55:11.002Z,5.40
2023-02-22T01:56:13.862Z,5.40
2023-02-22T01:57:18.241Z,5.40
2023-02-22T01:58:20.782Z,5.41
2023-02-22T01:59:22.975Z,5.44
2023-02-22T02:00:25.068Z,5.44
2023-02-22T02:01:27.338Z,5.49
2023-02-22T02:02:28.762Z,5.50
2023-02-22T02:03:31.907Z,5.51
2023-02-22T02:04:34.175Z,5.50
2023-02-22T02:05:36.809Z,5.49
2023-02-22T02:06:38.562Z,5.53
2023-02-22T02:07:40.517Z,5.51
2023-02-22T02:09:08.213Z,5.47
2023-02-22T02:10:12.196Z,5.42
2023-02-22T02:11:13.675Z,5.38
2023-02-22T02:12:15.797Z,5.32
2023-02-22T02:13:17.181Z,5.32
2023-02-22T02:14:18.482Z,5.29
2023-02-22T02:15:30.500Z,5.27
2023-02-22T02:16:36.516Z,5.27
2023-02-22T02:17:37.796Z,5.28
2023-02-22T02:18:39.005Z,5.28
2023-02-22T02:19:58.875Z,5.29
2023-02-22T02:21:12.032Z,5.26
2023-02-22T02:22:31.888Z,5.23
2023-02-22T02:23:39.175Z,5.23
2023-02-22T02:25:19.058Z,5.26
2023-02-22T02:26:41.497Z,5.31
2023-02-22T02:28:01.326Z,5.31
2023-02-22T02:29:33.573Z,5.32
2023-02-22T02:30:53.844Z,5.37
2023-02-22T02:32:13.745Z,5.40
2023-02-22T02:33:33.845Z,5.40
2023-02-22T02:34:47.864Z,5.38
2023-02-22T02:35:55.251Z,5.39
2023-02-22T02:36:56.479Z,5.41
2023-02-22T02:38:02.454Z,5.46
2023-02-22T02:39:11.760Z,5.49
2023-02-22T02:40:22.156Z,5.49
2023-02-22T02:41:27.022Z,5.45
2023-02-22T02:42:33.574Z,5.46
2023-02-22T02:43:37.653Z,5.44
2023-02-22T02:44:46.885Z,5.41
2023-02-22T02:45:54.315Z,5.40
2023-02-22T02:47:00.080Z,5.39
2023-02-22T02:48:02.582Z,5.40
2023-02-22T02:49:07.299Z,5.43
2023-02-22T02:50:09.839Z,5.42
2023-02-22T02:51:13.098Z,5.40
2023-02-22T02:52:16.282Z,5.38
2023-02-22T02:53:20.562Z,5.37
2023-02-22T02:54:23.048Z,5.35
2023-02-22T02:55:27.902Z,5.35
2023-02-22T02:56:29.108Z,5.35
2023-02-22T02:57:30.355Z,5.37
2023-02-22T02:58:34.335Z,5.39
2023-02-22T02:59:36.651Z,5.40
2023-02-22T03:00:40.779Z,5.37
2023-02-22T03:02:00.170Z,5.39
2023-02-22T03:03:04.330Z,5.37
2023-02-22T03:04:05.565Z,5.39
2023-02-22T03:05:19.193Z,5.44
2023-02-22T03:06:31.316Z,5.44
2023-02-22T03:07:32.565Z,5.42
2023-02-22T03:08:54.936Z,5.37
2023-02-22T03:10:14.745Z,5.38
2023-02-22T03:11:18.268Z,5.34
2023-02-22T03:12:41.193Z,5.32
2023-02-22T03:14:00.960Z,5.35
2023-02-22T03:15:07.508Z,5.32
2023-02-22T03:16:15.685Z,5.29
2023-02-22T03:17:16.920Z,5.28
2023-02-22T03:18:24.026Z,5.27
2023-02-22T03:19:43.872Z,5.24
2023-02-22T03:20:53.178Z,5.25
2023-02-22T03:21:54.432Z,5.24
2023-02-22T03:22:58.166Z,5.25
2023-02-22T03:24:02.109Z,5.29
2023-02-22T03:25:07.542Z,5.29
2023-02-22T03:26:14.691Z,5.25
2023-02-22T03:27:25.894Z,5.23
2023-02-22T03:28:29.817Z,5.19
2023-02-22T03:29:32.469Z,5.13
2023-02-22T03:30:36.755Z,5.10
2023-02-22T03:31:40.773Z,5.05
2023-02-22T03:32:45.240Z,5.03
2023-02-22T03:33:56.264Z,5.01
2023-02-22T03:35:11.991Z,4.99
2023-02-22T03:36:18.143Z,4.97
2023-02-22T03:37:25.555Z,4.98
2023-02-22T03:38:28.465Z,4.95
2023-02-22T03:39:30.991Z,4.93
2023-02-22T03:40:36.461Z,4.94
2023-02-22T03:41:38.220Z,4.94
2023-02-22T03:42:40.513Z,4.97
2023-02-22T03:43:43.347Z,4.95
2023-02-22T03:44:48.870Z,4.94
2023-02-22T03:45:50.606Z,4.92
2023-02-22T03:46:55.655Z,4.94
2023-02-22T03:48:03.248Z,4.97
2023-02-22T03:49:10.293Z,4.98
2023-02-22T03:50:18.800Z,4.97
2023-02-22T03:51:20.802Z,4.99
2023-02-22T03:52:26.345Z,5.00
2023-02-22T03:53:27.816Z,4.99
2023-02-22T03:54:29.831Z,5.00
2023-02-22T03:55:31.510Z,4.98
2023-02-22T03:56:39.039Z,4.96
2023-02-22T03:57:43.747Z,4.95
2023-02-22T03:58:46.523Z,4.94
2023-02-22T03:59:47.866Z,4.95
2023-02-22T04:00:49.311Z,4.96
2023-02-22T04:01:50.751Z,4.96
2023-02-22T04:02:52.037Z,4.96
2023-02-22T04:03:54.768Z,4.98
2023-02-22T04:04:56.201Z,5.07
2023-02-22T04:05:57.522Z,5.05
2023-02-22T04:06:58.770Z,5.10
2023-02-22T04:08:01.218Z,5.15
2023-02-22T04:09:04.737Z,5.19
2023-02-22T04:10:06.633Z,5.18
2023-02-22T04:11:07.872Z,5.15
2023-02-22T04:12:09.433Z,5.15
2023-02-22T04:13:25.458Z,5.14
2023-02-22T04:14:29.562Z,5.14
2023-02-22T04:15:31.926Z,5.11
2023-02-22T04:16:38.283Z,5.14
2023-02-22T04:17:42.465Z,5.12
2023-02-22T04:18:47.492Z,5.06
2023-02-22T04:19:52.428Z,5.01
2023-02-22T04:20:53.725Z,5.00
2023-02-22T04:22:03.902Z,4.98
2023-02-22T04:23:08.551Z,5.03
2023-02-22T04:24:13.021Z,5.01
2023-02-22T04:25:16.528Z,5.01
2023-02-22T04:26:19.585Z,5.03
2023-02-22T04:27:26.179Z,4.99
2023-02-22T04:28:29.751Z,4.98
2023-02-22T04:29:41.836Z,4.94
2023-02-22T04:30:43.064Z,4.94
2023-02-22T04:31:47.716Z,4.97
2023-02-22T04:32:49.616Z,4.96
2023-02-22T04:33:54.731Z,4.95
2023-02-22T04:35:01.141Z,4.99
2023-02-22T04:36:04.198Z,5.01
2023-02-22T04:37:08.180Z,5.00
2023-02-22T04:38:09.846Z,4.99
2023-02-22T04:39:13.504Z,5.00
2023-02-22T04:40:16.701Z,4.98
2023-02-22T04:41:18.964Z,5.00
2023-02-22T04:42:20.373Z,4.99
2023-02-22T04:43:21.692Z,4.98
2023-02-22T04:44:25.994Z,5.02
2023-02-22T04:45:27.563Z,5.03
2023-02-22T04:46:29.402Z,5.03
2023-02-22T04:47:30.703Z,5.08
2023-02-22T04:48:32.891Z,5.01
2023-02-22T04:49:34.148Z,4.99
2023-02-22T04:50:36.241Z,4.99
2023-02-22T04:51:37.457Z,5.00
2023-02-22T04:52:44.376Z,5.07
2023-02-22T04:53:45.980Z,5.04
2023-02-22T04:54:47.234Z,5.03
2023-02-22T04:55:48.445Z,5.02
2023-02-22T04:56:49.671Z,5.01
2023-02-22T04:57:50.982Z,5.09
2023-02-22T04:58:52.245Z,5.09
2023-02-22T04:59:53.498Z,5.11
2023-02-22T05:00:54.966Z,5.10
2023-02-22T05:01:56.289Z,5.11
2023-02-22T05:02:57.527Z,5.09
2023-02-22T05:03:59.144Z,5.06
2023-02-22T05:05:00.409Z,5.05
2023-02-22T05:06:01.660Z,5.08
2023-02-22T05:07:02.881Z,5.09
2023-02-22T05:08:04.329Z,5.08
2023-02-22T05:09:05.577Z,5.06
2023-02-22T05:10:06.880Z,5.08
2023-02-22T05:11:08.162Z,5.12
2023-02-22T05:12:09.429Z,5.10
2023-02-22T05:13:10.705Z,5.14
2023-02-22T05:14:12.257Z,5.14
2023-02-22T05:15:17.998Z,5.06
2023-02-22T05:16:19.338Z,5.02
2023-02-22T05:17:20.609Z,5.01
2023-02-22T05:18:21.837Z,4.98
2023-02-22T05:19:23.439Z,5.01
2023-02-22T05:20:30.810Z,4.99
2023-02-22T05:21:32.017Z,4.98
2023-02-22T05:22:33.336Z,5.00
2023-02-22T05:23:34.747Z,5.03
2023-02-22T05:24:36.001Z,5.03
2023-02-22T05:25:37.259Z,5.04
2023-02-22T05:26:38.488Z,4.99
2023-02-22T05:27:39.756Z,4.96
2023-02-22T05:28:41.075Z,4.92
2023-02-22T05:29:42.372Z,4.91
2023-02-22T05:30:43.835Z,4.93
2023-02-22T05:31:45.179Z,4.87
2023-02-22T05:32:47.142Z,4.86
2023-02-22T05:33:48.473Z,4.84
2023-02-22T05:34:49.676Z,4.81
2023-02-22T05:35:50.953Z,4.77
2023-02-22T05:36:52.216Z,4.80
2023-02-22T05:37:53.608Z,4.82
2023-02-22T05:38:55.443Z,4.80
2023-02-22T05:39:56.657Z,4.78
2023-02-22T05:40:57.932Z,4.74
2023-02-22T05:41:59.293Z,4.74
2023-02-22T05:43:00.613Z,4.73
2023-02-22T05:44:01.838Z,4.75
2023-02-22T05:45:03.338Z,4.72
2023-02-22T05:46:04.841Z,4.71
2023-02-22T05:47:06.149Z,4.71
2023-02-22T05:48:07.715Z,4.71
2023-02-22T05:49:08.928Z,4.71
2023-02-22T05:50:10.726Z,4.70
2023-02-22T05:51:11.955Z,4.67
2023-02-22T05:52:13.323Z,4.65
2023-02-22T05:53:14.584Z,4.69
2023-02-22T05:54:16.076Z,4.64
2023-02-22T05:55:18.613Z,4.62
2023-02-22T05:56:20.709Z,4.62
2023-02-22T05:57:21.953Z,4.62
2023-02-22T05:58:23.187Z,4.60
2023-02-22T05:59:24.393Z,4.66
2023-02-22T06:00:29.611Z,4.64
2023-02-22T06:01:30.864Z,4.63
2023-02-22T06:02:32.540Z,4.67
2023-02-22T06:03:33.928Z,4.64
2023-02-22T06:04:35.328Z,4.62
2023-02-22T06:05:37.184Z,4.62
2023-02-22T06:06:38.546Z,4.61
2023-02-22T06:07:39.765Z,4.59
2023-02-22T06:08:41.021Z,4.61
2023-02-22T06:09:42.282Z,4.59
2023-02-22T06:10:43.892Z,4.63
2023-02-22T06:11:45.173Z,4.62
2023-02-22T06:12:47.209Z,4.61
2023-02-22T06:13:52.438Z,4.61
2023-02-22T06:14:53.678Z,4.57
2023-02-22T06:15:54.979Z,4.58
2023-02-22T06:16:57.167Z,4.54
2023-02-22T06:17:58.648Z,4.56
2023-02-22T06:18:59.880Z,4.54
2023-02-22T06:20:01.100Z,4.54
2023-02-22T06:21:02.523Z,4.54
2023-02-22T06:22:03.873Z,4.55
2023-02-22T06:23:05.246Z,4.57
2023-02-22T06:24:06.653Z,4.58
2023-02-22T06:25:08.513Z,4.58
2023-02-22T06:26:15.379Z,4.57
2023-02-22T06:27:16.644Z,4.55
2023-02-22T06:28:17.977Z,4.56
2023-02-22T06:29:19.371Z,4.56
2023-02-22T06:30:22.228Z,4.57
2023-02-22T06:31:23.660Z,4.58
2023-02-22T06:32:24.995Z,4.62
2023-02-22T06:33:26.247Z,4.67
2023-02-22T06:34:27.439Z,4.69
2023-02-22T06:35:28.754Z,4.70
2023-02-22T06:36:30.016Z,4.69
2023-02-22T06:37:31.348Z,4.69
2023-02-22T06:38:32.630Z,4.68
2023-02-22T06:39:33.860Z,4.70
2023-02-22T06:40:35.096Z,4.73
2023-02-22T06:41:40.258Z,4.73
2023-02-22T06:42:41.553Z,4.74
2023-02-22T06:43:42.758Z,4.81
2023-02-22T06:44:44.134Z,4.86
2023-02-22T06:45:45.386Z,4.88
2023-02-22T06:46:47.571Z,4.89
2023-02-22T06:47:48.834Z,4.89
2023-02-22T06:48:50.076Z,4.90
2023-02-22T06:49:57.852Z,4.87
2023-02-22T06:50:59.176Z,4.88
2023-02-22T06:52:00.489Z,4.89
2023-02-22T06:53:01.715Z,4.89
2023-02-22T06:54:03.078Z,4.90
2023-02-22T06:55:04.382Z,4.91
2023-02-22T06:56:05.882Z,4.95
2023-02-22T06:57:07.191Z,5.00
2023-02-22T06:58:08.447Z,5.01
2023-02-22T06:59:09.669Z,5.03
2023-02-22T07:00:11.256Z,5.03
2023-02-22T07:01:12.878Z,5.05
2023-02-22T07:02:14.537Z,5.06
2023-02-22T07:03:15.892Z,5.11
2023-02-22T07:04:17.197Z,5.13
2023-02-22T07:05:19.627Z,5.16
2023-02-22T07:06:21.067Z,5.17
2023-02-22T07:07:22.630Z,5.17
2023-02-22T07:08:23.877Z,5.23
2023-02-22T07:09:25.125Z,5.30
2023-02-22T07:10:27.937Z,5.31
2023-02-22T07:11:29.205Z,5.32
2023-02-22T07:12:30.418Z,5.36
2023-02-22T07:13:31.758Z,5.36
2023-02-22T07:14:33.025Z,5.38
2023-02-22T07:15:34.881Z,5.40
2023-02-22T07:16:36.183Z,5.42
2023-02-22T07:17:37.397Z,5.43
2023-02-22T07:18:38.721Z,5.45
2023-02-22T07:19:40.007Z,5.48
2023-02-22T07:20:41.699Z,5.50
2023-02-22T07:21:42.965Z,5.52
2023-02-22T07:22:44.212Z,5.55
2023-02-22T07:23:50.501Z,5.56
2023-02-22T07:24:51.729Z,5.61
2023-02-22T07:25:52.945Z,5.63
2023-02-22T07:26:54.181Z,5.67
2023-02-22T07:27:55.640Z,5.69
2023-02-22T07:28:56.885Z,5.74
2023-02-22T07:29:58.321Z,5.76
2023-02-22T07:30:59.564Z,5.78
2023-02-22T07:32:00.831Z,5.81
2023-02-22T07:33:03.729Z,5.83
2023-02-22T07:34:05.077Z,5.86
2023-02-22T07:35:06.522Z,5.88
2023-02-22T07:36:08.220Z,5.91
2023-02-22T07:37:09.425Z,5.94
2023-02-22T07:38:10.717Z,5.95
2023-02-22T07:39:11.992Z,5.96
2023-02-22T07:40:13.681Z,6.01
2023-02-22T07:41:15.427Z,6.04
2023-02-22T07:42:16.877Z,6.05
2023-02-22T07:43:21.654Z,6.11
2023-02-22T07:44:22.970Z,6.13
2023-02-22T07:45:25.178Z,6.13
2023-02-22T07:46:26.577Z,6.15
2023-02-22T07:47:27.845Z,6.17
2023-02-22T07:48:29.831Z,6.17
2023-02-22T07:49:31.060Z,6.18
2023-02-22T07:50:33.237Z,6.18
2023-02-22T07:51:36.947Z,6.20
2023-02-22T07:52:38.196Z,6.21
2023-02-22T07:53:39.485Z,6.22
2023-02-22T07:54:40.689Z,6.23
2023-02-22T07:55:41.993Z,6.22
2023-02-22T07:56:47.135Z,6.21
2023-02-22T07:57:49.247Z,6.23
2023-02-22T07:58:50.454Z,6.25
2023-02-22T07:59:51.682Z,6.18
2023-02-22T08:00:53.824Z,6.18
2023-02-22T08:01:55.065Z,6.18
2023-02-22T08:02:56.527Z,6.17
2023-02-22T08:03:57.822Z,6.17
2023-02-22T08:04:59.069Z,6.15
2023-02-22T08:06:00.278Z,6.16
2023-02-22T08:07:01.494Z,6.09
2023-02-22T08:08:05.353Z,6.08
2023-02-22T08:09:06.606Z,6.09
2023-02-22T08:10:08.296Z,6.07
2023-02-22T08:11:09.542Z,6.06
2023-02-22T08:12:10.854Z,6.05
2023-02-22T08:13:12.185Z,6.04
2023-02-22T08:14:15.298Z,6.05
2023-02-22T08:15:18.010Z,6.06
2023-02-22T08:16:19.268Z,6.10
2023-02-22T08:17:20.550Z,6.09
2023-02-22T08:18:22.668Z,6.09
2023-02-22T08:19:23.925Z,6.09
2023-02-22T08:20:25.372Z,6.10
2023-02-22T08:21:26.607Z,6.13
2023-02-22T08:22:27.884Z,6.14
2023-02-22T08:23:29.156Z,6.15
2023-02-22T08:24:30.360Z,6.19
2023-02-22T08:25:31.887Z,6.20
2023-02-22T08:26:33.142Z,6.23
2023-02-22T08:27:34.435Z,6.30
2023-02-22T08:28:35.749Z,6.34
2023-02-22T08:29:37.010Z,6.34
2023-02-22T08:30:40.432Z,6.36
2023-02-22T08:31:41.963Z,6.36
2023-02-22T08:32:44.985Z,6.40
2023-02-22T08:33:49.434Z,6.41
2023-02-22T08:34:50.750Z,6.48
2023-02-22T08:35:52.532Z,6.52
2023-02-22T08:36:53.928Z,6.54
2023-02-22T08:37:57.149Z,6.58
2023-02-22T08:38:58.783Z,6.66
2023-02-22T08:40:00.076Z,6.70
2023-02-22T08:41:01.491Z,6.71
2023-02-22T08:42:02.769Z,6.71
2023-02-22T08:43:04.171Z,6.73
2023-02-22T08:44:05.494Z,6.77
2023-02-22T08:45:06.971Z,6.82
2023-02-22T08:46:08.470Z,6.82
2023-02-22T08:47:10.013Z,6.82
2023-02-22T08:48:11.637Z,6.84
2023-02-22T08:49:12.889Z,6.84
2023-02-22T08:50:18.646Z,6.89
2023-02-22T08:51:20.494Z,6.96
2023-02-22T08:52:21.914Z,7.06
2023-02-22T08:53:23.266Z,7.15
2023-02-22T08:54:25.021Z,7.16
2023-02-22T08:55:27.630Z,7.17
2023-02-22T08:56:29.505Z,7.19
2023-02-22T08:57:30.766Z,7.22
2023-02-22T08:58:31.972Z,7.27
2023-02-22T08:59:33.230Z,7.30
2023-02-22T09:00:34.749Z,7.33
2023-02-22T09:01:36.794Z,7.38
2023-02-22T09:02:38.247Z,7.45
2023-02-22T09:03:41.937Z,7.48
2023-02-22T09:04:43.713Z,7.52
2023-02-22T09:05:45.118Z,7.58
2023-02-22T09:06:46.629Z,7.64
2023-02-22T09:07:47.856Z,7.70
2023-02-22T09:08:49.087Z,7.79
2023-02-22T09:09:50.433Z,7.84
2023-02-22T09:10:51.771Z,7.88
2023-02-22T09:11:53.353Z,7.91
2023-02-22T09:12:55.086Z,7.96
2023-02-22T09:13:56.353Z,7.99
2023-02-22T09:14:58.091Z,8.03
2023-02-22T09:15:59.381Z,8.07
2023-02-22T09:17:00.692Z,8.14
2023-02-22T09:18:02.033Z,8.18
2023-02-22T09:19:05.173Z,8.22
2023-02-22T09:20:08.368Z,8.27
2023-02-22T09:21:09.662Z,8.32
2023-02-22T09:22:11.780Z,8.34
2023-02-22T09:23:12.994Z,8.38
2023-02-22T09:24:14.239Z,8.37
2023-02-22T09:25:17.393Z,8.36
2023-02-22T09:26:19.665Z,8.36
2023-02-22T09:27:21.026Z,8.41
2023-02-22T09:28:23.603Z,8.40
2023-02-22T09:29:26.550Z,8.41
2023-02-22T09:30:32.478Z,8.44
2023-02-22T09:31:37.245Z,8.45
2023-02-22T09:32:38.691Z,8.48
2023-02-22T09:33:40.826Z,8.53
2023-02-22T09:34:42.080Z,8.58
2023-02-22T09:35:44.648Z,8.62
2023-02-22T09:36:46.834Z,8.65
2023-02-22T09:37:48.240Z,8.75
2023-02-22T09:38:49.480Z,8.81
2023-02-22T09:39:50.755Z,8.84
2023-02-22T09:40:54.345Z,8.90
2023-02-22T09:42:11.364Z,8.95
2023-02-22T09:43:15.602Z,9.03
2023-02-22T09:44:23.461Z,9.14
2023-02-22T09:45:29.353Z,9.29
2023-02-22T09:46:33.339Z,9.33
2023-02-22T09:47:43.099Z,9.34
2023-02-22T09:48:47.206Z,9.39
2023-02-22T09:49:51.581Z,9.49
2023-02-22T09:50:57.844Z,9.54
2023-02-22T09:52:06.524Z,9.58
2023-02-22T09:53:13.869Z,9.60
2023-02-22T09:54:28.114Z,9.63
2023-02-22T09:55:29.359Z,9.69
2023-02-22T09:56:31.113Z,9.71
2023-02-22T09:57:35.033Z,9.75
2023-02-22T09:58:41.710Z,9.80
2023-02-22T09:59:58.375Z,9.86
2023-02-22T10:01:18.824Z,9.96
2023-02-22T10:02:32.127Z,10.03
2023-02-22T10:03:42.691Z,10.07
2023-02-22T10:04:49.528Z,10.08
2023-02-22T10:06:10.620Z,10.15
2023-02-22T10:07:15.640Z,10.26
2023-02-22T10:08:17.640Z,10.34
2023-02-22T10:09:18.997Z,10.39
2023-02-22T10:10:22.377Z,10.47
2023-02-22T10:11:36.271Z,10.52
2023-02-22T10:12:40.224Z,10.58
2023-02-22T10:13:49.796Z,10.63
2023-02-22T10:15:09.528Z,10.70
2023-02-22T10:16:29.483Z,10.79
2023-02-22T10:17:30.742Z,10.92
2023-02-22T10:18:44.090Z,11.00
2023-02-22T10:19:56.357Z,11.05
2023-02-22T10:21:02.595Z,11.08
2023-02-22T10:22:15.857Z,11.12
2023-02-22T10:23:17.103Z,11.18
2023-02-22T10:24:24.341Z,11.21
2023-02-22T10:25:27.281Z,11.25
2023-02-22T10:26:34.996Z,11.27
2023-02-22T10:27:40.916Z,11.27
2023-02-22T10:28:50.263Z,11.36
2023-02-22T10:29:56.841Z,11.34
2023-02-22T10:31:02.117Z,11.38
2023-02-22T10:32:04.741Z,11.40
2023-02-22T10:33:44.595Z,11.49
2023-02-22T10:34:49.909Z,11.50
2023-02-22T10:35:51.529Z,11.50
2023-02-22T10:36:58.507Z,11.55
2023-02-22T10:38:02.456Z,11.57
2023-02-22T10:39:17.308Z,11.63
2023-02-22T10:40:20.012Z,11.69
2023-02-22T10:41:35.393Z,11.74
2023-02-22T10:42:36.768Z,11.79
2023-02-22T10:43:38.357Z,11.83
2023-02-22T10:44:40.449Z,11.87
2023-02-22T10:45:42.048Z,11.91
2023-02-22T10:46:44.935Z,11.86
2023-02-22T10:47:46.606Z,11.87
2023-02-22T10:48:50.166Z,11.88
2023-02-22T10:49:56.282Z,11.88
2023-02-22T10:51:02.160Z,11.90
2023-02-22T10:52:03.978Z,11.93
2023-02-22T10:53:05.423Z,11.97
2023-02-22T10:54:19.853Z,11.95
2023-02-22T10:55:21.355Z,11.94
2023-02-22T10:56:24.309Z,11.93
2023-02-22T10:58:52.064Z,11.94
2023-02-22T10:59:53.286Z,11.90
2023-02-22T11:00:54.576Z,11.92
2023-02-22T11:01:55.941Z,11.89
2023-02-22T11:02:58.783Z,11.88
2023-02-22T11:04:02.701Z,11.89
2023-02-22T11:05:04.520Z,11.91
2023-02-22T11:06:18.553Z,11.90
2023-02-22T11:07:22.826Z,11.90
2023-02-22T11:08:25.699Z,11.92
2023-02-22T11:09:27.277Z,11.95
2023-02-22T11:10:34.486Z,11.94
2023-02-22T11:11:36.179Z,11.96
2023-02-22T11:12:38.666Z,11.94
2023-02-22T11:13:40.100Z,11.99
2023-02-22T11:14:41.344Z,12.00
2023-02-22T11:15:42.588Z,12.01
2023-02-22T11:16:50.379Z,12.01
2023-02-22T11:17:55.902Z,12.02
2023-02-22T11:19:01.642Z,12.08
2023-02-22T11:20:02.973Z,12.10
2023-02-22T11:21:08.589Z,12.16
2023-02-22T11:22:09.816Z,12.23
2023-02-22T11:23:11.106Z,12.25
2023-02-22T11:24:13.916Z,12.32
2023-02-22T11:25:20.048Z,12.36
2023-02-22T11:26:21.356Z,12.41
2023-02-22T11:27:25.172Z,12.44
2023-02-22T11:28:27.865Z,12.48
2023-02-22T11:29:30.570Z,12.54
2023-02-22T11:30:33.034Z,12.65
2023-02-22T11:31:41.752Z,12.63
2023-02-22T11:32:44.508Z,12.68
2023-02-22T11:33:59.063Z,12.70
2023-02-22T11:35:18.746Z,12.74
2023-02-22T11:36:36.985Z,12.69
2023-02-22T11:37:38.254Z,12.69
2023-02-22T11:38:39.542Z,12.73
2023-02-22T11:39:40.845Z,12.81
2023-02-22T11:40:42.247Z,12.83
2023-02-22T11:41:43.577Z,12.87
2023-02-22T11:42:45.657Z,12.88
2023-02-22T11:43:48.281Z,12.92
2023-02-22T11:45:07.151Z,12.97
2023-02-22T11:46:11.506Z,13.04
2023-02-22T11:47:12.751Z,13.02
2023-02-22T11:48:18.986Z,13.04
2023-02-22T11:49:20.239Z,13.08
2023-02-22T11:50:25.699Z,13.10
2023-02-22T11:51:26.914Z,13.09
2023-02-22T11:52:36.339Z,13.12
2023-02-22T11:53:40.403Z,13.15
2023-02-22T11:54:41.618Z,13.23
2023-02-22T11:55:50.437Z,13.28
2023-02-22T11:56:54.746Z,13.26
2023-02-22T11:58:01.878Z,13.30
2023-02-22T11:59:10.725Z,13.46
2023-02-22T12:00:19.288Z,13.58
2023-02-22T12:01:31.283Z,13.66
2023-02-22T12:02:32.660Z,13.58
2023-02-22T12:03:52.835Z,13.47
2023-02-22T12:05:00.336Z,13.42
2023-02-22T12:06:10.442Z,13.39
2023-02-22T12:07:20.948Z,13.44
2023-02-22T12:08:40.753Z,13.49
2023-02-22T12:09:48.073Z,13.54
2023-02-22T12:11:07.492Z,13.58
2023-02-22T12:12:08.722Z,13.63
2023-02-22T12:13:18.889Z,13.59
2023-02-22T12:14:22.936Z,13.62
2023-02-22T12:15:44.302Z,13.66
2023-02-22T12:16:56.178Z,13.62
2023-02-22T12:18:00.400Z,13.65
2023-02-22T12:19:01.795Z,13.62
2023-02-22T12:20:05.441Z,13.60
2023-02-22T12:21:13.473Z,13.57
2023-02-22T12:22:24.667Z,13.55
2023-02-22T12:23:33.291Z,13.57
2023-02-22T12:24:36.906Z,13.58
2023-02-22T12:25:54.111Z,13.61
2023-02-22T12:26:59.449Z,13.63
2023-02-22T12:28:15.688Z,13.69
2023-02-22T12:29:43.028Z,13.70
2023-02-22T12:30:49.669Z,13.72
2023-02-22T12:31:55.008Z,13.74
2023-02-22T12:33:00.688Z,13.72
2023-02-22T12:34:20.728Z,13.75
2023-02-22T12:35:24.983Z,13.75
2023-02-22T12:36:31.780Z,13.75
2023-02-22T12:37:45.297Z,13.71
2023-02-22T12:38:50.743Z,13.73
2023-02-22T12:40:16.336Z,13.73
2023-02-22T12:41:25.199Z,13.84
2023-02-22T12:42:48.136Z,13.83
2023-02-22T12:43:56.191Z,13.78
2023-02-22T12:45:06.658Z,13.77
2023-02-22T12:46:30.384Z,13.86
2023-02-22T12:47:37.640Z,13.85
2023-02-22T12:48:57.613Z,13.87
2023-02-22T12:50:10.289Z,13.88
2023-02-22T12:51:17.643Z,13.88
2023-02-22T12:52:37.438Z,13.95
2023-02-22T12:53:40.515Z,14.14
2023-02-22T12:54:47.845Z,14.16
2023-02-22T12:55:56.597Z,14.21
2023-02-22T12:57:04.951Z,14.18
2023-02-22T12:58:17.466Z,14.13
2023-02-22T12:59:53.868Z,14.10
2023-02-22T13:01:00.134Z,14.19
2023-02-22T13:02:12.306Z,14.19
2023-02-22T13:03:28.819Z,14.21
2023-02-22T13:04:30.144Z,14.28
2023-02-22T13:05:34.867Z,14.29
2023-02-22T13:06:40.850Z,14.32
2023-02-22T13:07:52.198Z,14.36
2023-02-22T13:09:02.394Z,14.40
2023-02-22T13:10:22.248Z,14.41
2023-02-22T13:11:42.019Z,14.49
2023-02-22T13:12:52.677Z,14.65
2023-02-22T13:13:56.653Z,14.53
2023-02-22T13:15:00.663Z,14.55
2023-02-22T13:16:04.969Z,14.54
2023-02-22T13:17:25.177Z,14.57
2023-02-22T13:18:26.412Z,14.63
2023-02-22T13:19:37.741Z,14.65
2023-02-22T13:20:47.712Z,14.64
2023-02-22T13:22:03.630Z,14.65
2023-02-22T13:23:09.452Z,14.61
2023-02-22T13:24:23.040Z,14.59
2023-02-22T13:25:36.366Z,14.63
2023-02-22T13:26:42.562Z,14.59
2023-02-22T13:27:49.929Z,14.59
2023-02-22T13:28:57.253Z,14.63
2023-02-22T13:29:59.564Z,14.62
2023-02-22T13:31:06.036Z,14.63
2023-02-22T13:32:13.241Z,14.65
2023-02-22T13:33:14.507Z,14.68
2023-02-22T13:34:35.996Z,14.76
2023-02-22T13:35:46.060Z,14.73
2023-02-22T13:36:50.322Z,14.71
2023-02-22T13:38:11.794Z,14.71
2023-02-22T13:39:26.073Z,14.69
2023-02-22T13:40:50.042Z,14.70
2023-02-22T13:41:53.363Z,14.68
2023-02-22T13:43:00.535Z,14.63
2023-02-22T13:44:21.924Z,14.60
2023-02-22T13:45:49.247Z,14.69
2023-02-22T13:47:09.311Z,14.75
2023-02-22T13:48:13.353Z,14.69
2023-02-22T13:49:38.530Z,14.66
2023-02-22T13:51:03.588Z,14.65
2023-02-22T13:52:13.627Z,14.65
2023-02-22T13:53:18.659Z,14.67
2023-02-22T13:54:25.767Z,14.56
2023-02-22T13:55:29.477Z,14.52
2023-02-22T13:56:30.767Z,14.52
2023-02-22T13:57:40.003Z,14.52
2023-02-22T13:58:48.602Z,14.44
2023-02-22T14:00:09.791Z,14.51
2023-02-22T14:01:33.875Z,14.46
2023-02-22T14:02:53.780Z,14.49
2023-02-22T14:04:15.007Z,14.46
2023-02-22T14:05:35.192Z,14.40
2023-02-22T14:06:37.210Z,14.34
2023-02-22T14:07:46.053Z,14.36
2023-02-22T14:08:47.398Z,14.29
2023-02-22T14:09:52.608Z,14.22
2023-02-22T14:10:58.119Z,14.17
2023-02-22T14:11:59.386Z,14.14
2023-02-22T14:13:04.484Z,14.13
2023-02-22T14:14:09.881Z,14.26
2023-02-22T14:15:26.442Z,14.24
2023-02-22T14:16:30.660Z,14.23